Acton, Massachusetts
Current Conditions -  °F | °C
As of 7:01 PM on Wednesday 26 Nov 2014 (Local Time) from KBED Reporting Station
Freezing Rain Freezing Rain  
Wind Chill: 20°   Ceiling: 800
Heat Index: 32°   Visibility: 2mi
Dew Point: 31°   Wind: 18mph
Humidity: 96%   Direction: 20°NNE
Pressure: 29.8"   Gusts: 24mph
Location:  42.49°N, 71.43°W
Report Text: KBED 270001Z 02016G21KT 2SM FZRA BR OVC008 00/M01 A2980 RMK AO2 P0001 I1000 T00001006
Loading
Personal Weather Stations






























Interactive Weather Map New forecast layout! Learn more

10-Day Weather Forecast

Advertisements
Track Severe Weather on mobile